sensor_id;sensor_type;location;lat;lon;timestamp;pressure;altitude;pressure_sealevel;temperature;humidity
28683;BME280;15862;43.062;25.626;2023-01-26T00:01:51;101037.41;;;2.46;100.00
28683;BME280;15862;43.062;25.626;2023-01-26T00:04:17;101034.81;;;2.48;100.00
28683;BME280;15862;43.062;25.626;2023-01-26T00:06:43;101024.44;;;2.55;100.00
28683;BME280;15862;43.062;25.626;2023-01-26T00:09:12;101028.81;;;2.50;100.00
28683;BME280;15862;43.062;25.626;2023-01-26T00:11:38;101018.75;;;2.44;100.00
28683;BME280;15862;43.062;25.626;2023-01-26T00:14:04;101034.81;;;2.48;100.00
28683;BME280;15862;43.062;25.626;2023-01-26T00:16:29;101026.22;;;2.52;100.00
28683;BME280;15862;43.062;25.626;2023-01-26T00:18:55;101034.97;;;2.42;100.00
28683;BME280;15862;43.062;25.626;2023-01-26T00:21:21;101027.34;;;2.40;100.00
28683;BME280;15862;43.062;25.626;2023-01-26T00:23:48;101023.72;;;2.50;100.00
28683;BME280;15862;43.062;25.626;2023-01-26T00:26:19;101021.81;;;2.58;100.00
28683;BME280;15862;43.062;25.626;2023-01-26T00:28:45;101016.94;;;2.49;100.00
28683;BME280;15862;43.062;25.626;2023-01-26T00:31:13;101012.03;;;2.42;100.00
28683;BME280;15862;43.062;25.626;2023-01-26T00:33:39;101018.63;;;2.50;100.00
28683;BME280;15862;43.062;25.626;2023-01-26T00:36:04;101010.25;;;2.45;100.00
28683;BME280;15862;43.062;25.626;2023-01-26T00:38:30;101016.16;;;2.46;100.00
28683;BME280;15862;43.062;25.626;2023-01-26T00:40:55;101012.81;;;2.44;100.00
28683;BME280;15862;43.062;25.626;2023-01-26T00:43:21;101009.38;;;2.45;100.00
28683;BME280;15862;43.062;25.626;2023-01-26T00:45:46;101011.06;;;2.46;100.00
28683;BME280;15862;43.062;25.626;2023-01-26T00:48:12;100988.63;;;2.25;100.00
28683;BME280;15862;43.062;25.626;2023-01-26T00:50:38;100980.16;;;2.25;100.00
28683;BME280;15862;43.062;25.626;2023-01-26T00:53:03;100985.03;;;2.33;100.00
28683;BME280;15862;43.062;25.626;2023-01-26T00:55:29;100985.03;;;2.33;100.00
28683;BME280;15862;43.062;25.626;2023-01-26T00:58:01;100980.94;;;2.28;100.00
28683;BME280;15862;43.062;25.626;2023-01-26T01:00:28;100973.28;;;2.26;100.00
28683;BME280;15862;43.062;25.626;2023-01-26T01:02:54;100953.75;;;2.27;100.00
28683;BME280;15862;43.062;25.626;2023-01-26T01:05:21;100963.19;;;2.24;100.00
28683;BME280;15862;43.062;25.626;2023-01-26T01:07:47;100955.44;;;2.26;100.00
28683;BME280;15862;43.062;25.626;2023-01-26T01:10:13;100936.09;;;2.20;100.00
28683;BME280;15862;43.062;25.626;2023-01-26T01:12:38;100956.31;;;2.25;100.00
28683;BME280;15862;43.062;25.626;2023-01-26T01:15:04;100962.34;;;2.23;100.00
28683;BME280;15862;43.062;25.626;2023-01-26T01:17:30;100952.31;;;2.16;100.00
28683;BME280;15862;43.062;25.626;2023-01-26T01:19:55;100956.56;;;2.17;100.00
28683;BME280;15862;43.062;25.626;2023-01-26T01:22:21;100949.69;;;2.19;100.00
28683;BME280;15862;43.062;25.626;2023-01-26T01:24:46;100946.03;;;2.30;100.00
28683;BME280;15862;43.062;25.626;2023-01-26T01:27:11;100937.63;;;2.26;100.00
28683;BME280;15862;43.062;25.626;2023-01-26T01:29:37;100942.91;;;2.19;100.00
28683;BME280;15862;43.062;25.626;2023-01-26T01:32:02;100944.59;;;2.20;100.00
28683;BME280;15862;43.062;25.626;2023-01-26T01:34:28;100929.50;;;2.11;100.00
28683;BME280;15862;43.062;25.626;2023-01-26T01:36:53;100942.81;;;2.24;100.00
28683;BME280;15862;43.062;25.626;2023-01-26T01:39:19;100936.84;;;2.23;100.00
28683;BME280;15862;43.062;25.626;2023-01-26T01:41:44;100931.03;;;2.18;100.00
28683;BME280;15862;43.062;25.626;2023-01-26T01:46:43;100931.00;;;2.20;100.00
28683;BME280;15862;43.062;25.626;2023-01-26T01:49:19;100912.56;;;2.09;100.00
28683;BME280;15862;43.062;25.626;2023-01-26T01:51:51;100934.50;;;2.16;100.00
28683;BME280;15862;43.062;25.626;2023-01-26T01:54:24;100936.19;;;2.17;100.00
28683;BME280;15862;43.062;25.626;2023-01-26T01:56:55;100931.75;;;2.23;100.00
28683;BME280;15862;43.062;25.626;2023-01-26T01:59:22;100918.28;;;2.18;100.00
28683;BME280;15862;43.062;25.626;2023-01-26T02:01:50;100927.50;;;2.24;100.00
28683;BME280;15862;43.062;25.626;2023-01-26T02:04:16;100928.44;;;2.20;100.00
28683;BME280;15862;43.062;25.626;2023-01-26T02:06:55;100921.72;;;2.17;100.00
28683;BME280;15862;43.062;25.626;2023-01-26T02:09:29;100918.19;;;2.23;100.00
28683;BME280;15862;43.062;25.626;2023-01-26T02:12:16;100920.66;;;2.25;100.00
28683;BME280;15862;43.062;25.626;2023-01-26T02:14:44;100911.66;;;2.11;100.00
28683;BME280;15862;43.062;25.626;2023-01-26T02:17:10;100907.34;;;2.15;100.00
28683;BME280;15862;43.062;25.626;2023-01-26T02:27:59;100865.34;;;1.96;100.00
28683;BME280;15862;43.062;25.626;2023-01-26T02:30:26;100882.16;;;2.03;100.00
28683;BME280;15862;43.062;25.626;2023-01-26T02:32:52;100875.13;;;2.12;100.00
28683;BME280;15862;43.062;25.626;2023-01-26T02:35:17;100876.69;;;2.18;100.00
28683;BME280;15862;43.062;25.626;2023-01-26T02:37:43;100870.75;;;2.17;100.00
28683;BME280;15862;43.062;25.626;2023-01-26T02:40:32;100867.44;;;2.14;100.00
28683;BME280;15862;43.062;25.626;2023-01-26T02:43:02;100871.50;;;2.21;100.00
28683;BME280;15862;43.062;25.626;2023-01-26T02:45:29;100865.31;;;2.30;100.00
28683;BME280;15862;43.062;25.626;2023-01-26T02:47:55;100862.03;;;2.25;100.00
28683;BME280;15862;43.062;25.626;2023-01-26T02:50:22;100860.34;;;2.26;100.00
28683;BME280;15862;43.062;25.626;2023-01-26T02:52:47;100851.00;;;2.25;100.00
28683;BME280;15862;43.062;25.626;2023-01-26T02:55:13;100863.38;;;2.40;100.00
28683;BME280;15862;43.062;25.626;2023-01-26T02:57:48;100869.63;;;2.28;100.00
28683;BME280;15862;43.062;25.626;2023-01-26T03:00:22;100860.22;;;2.30;100.00
28683;BME280;15862;43.062;25.626;2023-01-26T03:02:50;100851.66;;;2.33;100.00
28683;BME280;15862;43.062;25.626;2023-01-26T03:05:16;100850.09;;;2.27;100.00
28683;BME280;15862;43.062;25.626;2023-01-26T03:07:41;100852.59;;;2.30;100.00
28683;BME280;15862;43.062;25.626;2023-01-26T03:10:07;100843.63;;;2.15;100.00
28683;BME280;15862;43.062;25.626;2023-01-26T03:12:33;100849.88;;;2.03;100.00
28683;BME280;15862;43.062;25.626;2023-01-26T03:14:58;100839.53;;;2.09;100.00
28683;BME280;15862;43.062;25.626;2023-01-26T03:17:42;100841.19;;;2.10;100.00
28683;BME280;15862;43.062;25.626;2023-01-26T03:20:08;100840.44;;;2.07;100.00
28683;BME280;15862;43.062;25.626;2023-01-26T03:22:53;100790.38;;;1.71;100.00
28683;BME280;15862;43.062;25.626;2023-01-26T03:25:37;100838.31;;;1.90;100.00
28683;BME280;15862;43.062;25.626;2023-01-26T03:28:21;100829.03;;;1.86;100.00
28683;BME280;15862;43.062;25.626;2023-01-26T03:30:52;100823.13;;;1.86;100.00
28683;BME280;15862;43.062;25.626;2023-01-26T03:33:18;100807.25;;;1.75;100.00
28683;BME280;15862;43.062;25.626;2023-01-26T03:35:44;100824.66;;;1.93;100.00
28683;BME280;15862;43.062;25.626;2023-01-26T03:38:10;100817.88;;;1.92;100.00
28683;BME280;15862;43.062;25.626;2023-01-26T03:40:36;100816.97;;;1.94;100.00
28683;BME280;15862;43.062;25.626;2023-01-26T03:43:20;100809.38;;;1.93;100.00
28683;BME280;15862;43.062;25.626;2023-01-26T03:46:05;100775.06;;;1.74;100.00
28683;BME280;15862;43.062;25.626;2023-01-26T03:48:49;100821.09;;;2.00;100.00
28683;BME280;15862;43.062;25.626;2023-01-26T03:51:33;100804.97;;;1.99;100.00
28683;BME280;15862;43.062;25.626;2023-01-26T03:54:17;100801.03;;;1.88;100.00
28683;BME280;15862;43.062;25.626;2023-01-26T03:57:02;100783.34;;;1.80;100.00
28683;BME280;15862;43.062;25.626;2023-01-26T03:59:28;100797.44;;;1.95;100.00
28683;BME280;15862;43.062;25.626;2023-01-26T04:02:03;100781.63;;;1.82;100.00
28683;BME280;15862;43.062;25.626;2023-01-26T04:04:48;100795.88;;;1.89;100.00
28683;BME280;15862;43.062;25.626;2023-01-26T04:07:32;100789.22;;;1.84;100.00
28683;BME280;15862;43.062;25.626;2023-01-26T04:10:16;100740.84;;;1.49;100.00
28683;BME280;15862;43.062;25.626;2023-01-26T04:12:42;100786.00;;;1.76;100.00
28683;BME280;15862;43.062;25.626;2023-01-26T04:15:07;100770.81;;;1.73;100.00
28683;BME280;15862;43.062;25.626;2023-01-26T04:17:52;100780.84;;;1.79;100.00
28683;BME280;15862;43.062;25.626;2023-01-26T04:20:36;100776.63;;;1.78;100.00
28683;BME280;15862;43.062;25.626;2023-01-26T04:23:20;100774.13;;;1.76;100.00
28683;BME280;15862;43.062;25.626;2023-01-26T04:25:46;100767.63;;;1.65;100.00
28683;BME280;15862;43.062;25.626;2023-01-26T04:28:12;100775.00;;;1.75;100.00
28683;BME280;15862;43.062;25.626;2023-01-26T04:30:37;100763.19;;;1.73;100.00
28683;BME280;15862;43.062;25.626;2023-01-26T04:33:03;100747.31;;;1.62;100.00
28683;BME280;15862;43.062;25.626;2023-01-26T04:35:29;100746.41;;;1.64;100.00
28683;BME280;15862;43.062;25.626;2023-01-26T04:37:54;100749.66;;;1.71;100.00
28683;BME280;15862;43.062;25.626;2023-01-26T04:40:19;100767.41;;;1.74;100.00
28683;BME280;15862;43.062;25.626;2023-01-26T04:42:45;100770.81;;;1.73;100.00
28683;BME280;15862;43.062;25.626;2023-01-26T04:45:10;100772.34;;;1.80;100.00
28683;BME280;15862;43.062;25.626;2023-01-26T04:47:36;100769.59;;;1.89;100.00
28683;BME280;15862;43.062;25.626;2023-01-26T04:50:02;100772.03;;;1.92;100.00
28683;BME280;15862;43.062;25.626;2023-01-26T04:52:27;100754.31;;;1.87;100.00
28683;BME280;15862;43.062;25.626;2023-01-26T04:54:53;100752.53;;;1.91;100.00
28683;BME280;15862;43.062;25.626;2023-01-26T04:57:18;100755.09;;;1.91;100.00
28683;BME280;15862;43.062;25.626;2023-01-26T04:59:48;100753.50;;;1.87;100.00
28683;BME280;15862;43.062;25.626;2023-01-26T05:02:14;100746.78;;;1.83;100.00
28683;BME280;15862;43.062;25.626;2023-01-26T05:04:39;100746.72;;;1.86;100.00
28683;BME280;15862;43.062;25.626;2023-01-26T05:07:05;100740.94;;;1.79;100.00
28683;BME280;15862;43.062;25.626;2023-01-26T05:09:30;100741.78;;;1.80;100.00
28683;BME280;15862;43.062;25.626;2023-01-26T05:11:55;100739.31;;;1.77;100.00
28683;BME280;15862;43.062;25.626;2023-01-26T05:14:41;100724.91;;;1.76;100.00
28683;BME280;15862;43.062;25.626;2023-01-26T05:17:06;100739.97;;;1.85;100.00
28683;BME280;15862;43.062;25.626;2023-01-26T05:19:31;100743.22;;;1.90;100.00
28683;BME280;15862;43.062;25.626;2023-01-26T05:21:57;100737.03;;;2.00;100.00
28683;BME280;15862;43.062;25.626;2023-01-26T05:24:22;100731.88;;;2.01;100.00
28683;BME280;15862;43.062;25.626;2023-01-26T05:26:48;100735.28;;;2.02;100.00
28683;BME280;15862;43.062;25.626;2023-01-26T05:29:33;100725.00;;;2.05;100.00
28683;BME280;15862;43.062;25.626;2023-01-26T05:31:59;100695.63;;;1.92;100.00
28683;BME280;15862;43.062;25.626;2023-01-26T05:34:24;100729.84;;;2.14;100.00
28683;BME280;15862;43.062;25.626;2023-01-26T05:36:49;100706.25;;;2.07;100.00
28683;BME280;15862;43.062;25.626;2023-01-26T05:39:15;100701.84;;;2.14;100.00
28683;BME280;15862;43.062;25.626;2023-01-26T05:41:40;100718.63;;;2.21;100.00
28683;BME280;15862;43.062;25.626;2023-01-26T05:44:07;100717.69;;;2.23;100.00
28683;BME280;15862;43.062;25.626;2023-01-26T05:46:32;100718.31;;;2.32;100.00
28683;BME280;15862;43.062;25.626;2023-01-26T05:48:57;100692.41;;;2.17;100.00
28683;BME280;15862;43.062;25.626;2023-01-26T05:51:23;100708.19;;;2.29;100.00
28683;BME280;15862;43.062;25.626;2023-01-26T05:53:48;100705.72;;;2.26;100.00
28683;BME280;15862;43.062;25.626;2023-01-26T05:56:14;100718.25;;;2.34;100.00
28683;BME280;15862;43.062;25.626;2023-01-26T05:58:39;100716.47;;;2.37;100.00
28683;BME280;15862;43.062;25.626;2023-01-26T06:01:04;100704.34;;;2.45;100.00
28683;BME280;15862;43.062;25.626;2023-01-26T06:03:30;100701.78;;;2.45;100.00
28683;BME280;15862;43.062;25.626;2023-01-26T06:05:55;100704.09;;;2.54;100.00
28683;BME280;15862;43.062;25.626;2023-01-26T06:08:21;100698.88;;;2.57;100.00
28683;BME280;15862;43.062;25.626;2023-01-26T06:10:46;100696.47;;;2.53;100.00
28683;BME280;15862;43.062;25.626;2023-01-26T06:13:11;100681.28;;;2.50;100.00
28683;BME280;15862;43.062;25.626;2023-01-26T06:15:37;100684.66;;;2.50;100.00
28683;BME280;15862;43.062;25.626;2023-01-26T06:18:02;100667.13;;;2.40;100.00
28683;BME280;15862;43.062;25.626;2023-01-26T06:20:27;100666.31;;;2.38;100.00
28683;BME280;15862;43.062;25.626;2023-01-26T06:22:53;100668.91;;;2.36;100.00
28683;BME280;15862;43.062;25.626;2023-01-26T06:25:18;100670.47;;;2.42;100.00
28683;BME280;15862;43.062;25.626;2023-01-26T06:27:44;100662.09;;;2.37;100.00
28683;BME280;15862;43.062;25.626;2023-01-26T06:30:09;100656.97;;;2.38;100.00
28683;BME280;15862;43.062;25.626;2023-01-26T06:32:35;100640.19;;;2.31;100.00
28683;BME280;15862;43.062;25.626;2023-01-26T06:35:01;100640.94;;;2.33;100.00
28683;BME280;15862;43.062;25.626;2023-01-26T06:37:27;100646.78;;;2.38;100.00
28683;BME280;15862;43.062;25.626;2023-01-26T06:39:52;100640.81;;;2.38;100.00
28683;BME280;15862;43.062;25.626;2023-01-26T06:42:18;100624.41;;;2.48;100.00
28683;BME280;15862;43.062;25.626;2023-01-26T06:44:43;100631.03;;;2.53;100.00
28683;BME280;15862;43.062;25.626;2023-01-26T06:47:08;100623.38;;;2.53;100.00
28683;BME280;15862;43.062;25.626;2023-01-26T06:49:34;100620.47;;;2.65;100.00
28683;BME280;15862;43.062;25.626;2023-01-26T06:52:20;100611.81;;;2.69;100.00
28683;BME280;15862;43.062;25.626;2023-01-26T06:54:49;100604.03;;;2.74;100.00
28683;BME280;15862;43.062;25.626;2023-01-26T06:57:27;100613.34;;;3.02;100.00
28683;BME280;15862;43.062;25.626;2023-01-26T06:59:52;100615.56;;;3.12;100.00
28683;BME280;15862;43.062;25.626;2023-01-26T07:02:19;100609.50;;;3.15;100.00
28683;BME280;15862;43.062;25.626;2023-01-26T07:04:46;100616.56;;;3.33;100.00
28683;BME280;15862;43.062;25.626;2023-01-26T07:07:11;100618.44;;;3.28;100.00
28683;BME280;15862;43.062;25.626;2023-01-26T07:09:37;100622.63;;;3.30;100.00
28683;BME280;15862;43.062;25.626;2023-01-26T07:12:02;100623.91;;;3.42;100.00
28683;BME280;15862;43.062;25.626;2023-01-26T07:14:30;100625.56;;;3.44;100.00
28683;BME280;15862;43.062;25.626;2023-01-26T07:16:56;100601.84;;;3.41;100.00
28683;BME280;15862;43.062;25.626;2023-01-26T07:19:21;100616.09;;;3.46;100.00
28683;BME280;15862;43.062;25.626;2023-01-26T07:21:47;100607.41;;;3.52;100.00
28683;BME280;15862;43.062;25.626;2023-01-26T07:24:13;100617.63;;;3.52;100.00
28683;BME280;15862;43.062;25.626;2023-01-26T07:26:38;100618.41;;;3.54;100.00
28683;BME280;15862;43.062;25.626;2023-01-26T07:29:04;100619.94;;;3.59;100.00
28683;BME280;15862;43.062;25.626;2023-01-26T07:31:29;100608.25;;;3.52;100.00
28683;BME280;15862;43.062;25.626;2023-01-26T07:33:54;100618.28;;;3.57;100.00
28683;BME280;15862;43.062;25.626;2023-01-26T07:36:20;100612.31;;;3.58;100.00
28683;BME280;15862;43.062;25.626;2023-01-26T07:38:46;100608.66;;;3.65;100.00
28683;BME280;15862;43.062;25.626;2023-01-26T07:41:11;100591.34;;;3.73;100.00
28683;BME280;15862;43.062;25.626;2023-01-26T07:43:37;100589.22;;;3.61;100.00
28683;BME280;15862;43.062;25.626;2023-01-26T07:46:04;100592.44;;;3.66;100.00
28683;BME280;15862;43.062;25.626;2023-01-26T07:48:30;100587.13;;;3.72;100.00
28683;BME280;15862;43.062;25.626;2023-01-26T07:51:00;100585.19;;;3.78;100.00
28683;BME280;15862;43.062;25.626;2023-01-26T07:53:27;100584.97;;;3.84;100.00
28683;BME280;15862;43.062;25.626;2023-01-26T07:56:07;100582.16;;;3.91;100.00
28683;BME280;15862;43.062;25.626;2023-01-26T07:58:32;100574.34;;;3.96;100.00
28683;BME280;15862;43.062;25.626;2023-01-26T08:01:13;100550.56;;;3.94;100.00
28683;BME280;15862;43.062;25.626;2023-01-26T08:03:39;100571.56;;;4.23;100.00
28683;BME280;15862;43.062;25.626;2023-01-26T08:06:06;100570.22;;;4.36;100.00
28683;BME280;15862;43.062;25.626;2023-01-26T08:08:32;100560.25;;;4.52;100.00
28683;BME280;15862;43.062;25.626;2023-01-26T08:10:58;100567.75;;;4.56;100.00
28683;BME280;15862;43.062;25.626;2023-01-26T08:13:28;100569.03;;;4.66;100.00
28683;BME280;15862;43.062;25.626;2023-01-26T08:15:57;100557.88;;;4.47;100.00
28683;BME280;15862;43.062;25.626;2023-01-26T08:18:24;100563.94;;;4.66;100.00
28683;BME280;15862;43.062;25.626;2023-01-26T08:20:51;100551.84;;;4.69;100.00
28683;BME280;15862;43.062;25.626;2023-01-26T08:23:16;100569.75;;;4.91;100.00
28683;BME280;15862;43.062;25.626;2023-01-26T08:25:42;100563.69;;;4.93;100.00
28683;BME280;15862;43.062;25.626;2023-01-26T08:28:07;100544.41;;;4.85;100.00
28683;BME280;15862;43.062;25.626;2023-01-26T08:30:33;100557.66;;;5.16;100.00
28683;BME280;15862;43.062;25.626;2023-01-26T08:32:58;100550.41;;;5.25;100.00
28683;BME280;15862;43.062;25.626;2023-01-26T08:35:24;100556.28;;;5.47;100.00
28683;BME280;15862;43.062;25.626;2023-01-26T08:37:49;100551.50;;;5.59;100.00
28683;BME280;15862;43.062;25.626;2023-01-26T08:40:15;100542.44;;;5.51;100.00
28683;BME280;15862;43.062;25.626;2023-01-26T08:42:40;100529.72;;;5.49;100.00
28683;BME280;15862;43.062;25.626;2023-01-26T08:45:06;100540.06;;;5.66;99.83
28683;BME280;15862;43.062;25.626;2023-01-26T08:47:32;100525.69;;;5.82;99.85
28683;BME280;15862;43.062;25.626;2023-01-26T08:49:57;100516.91;;;5.88;97.67
28683;BME280;15862;43.062;25.626;2023-01-26T08:52:23;100510.97;;;5.87;97.57
28683;BME280;15862;43.062;25.626;2023-01-26T08:54:48;100506.13;;;5.81;97.92
28683;BME280;15862;43.062;25.626;2023-01-26T08:57:14;100511.22;;;5.61;99.38
28683;BME280;15862;43.062;25.626;2023-01-26T08:59:39;100506.00;;;5.64;100.00
28683;BME280;15862;43.062;25.626;2023-01-26T09:02:05;100505.38;;;5.59;99.63
28683;BME280;15862;43.062;25.626;2023-01-26T09:04:30;100500.88;;;5.64;99.88
28683;BME280;15862;43.062;25.626;2023-01-26T09:06:55;100512.94;;;5.42;99.69
28683;BME280;15862;43.062;25.626;2023-01-26T09:09:21;100508.81;;;5.38;100.00
28683;BME280;15862;43.062;25.626;2023-01-26T09:11:46;100504.88;;;5.31;100.00
28683;BME280;15862;43.062;25.626;2023-01-26T09:14:12;100508.31;;;5.30;100.00
28683;BME280;15862;43.062;25.626;2023-01-26T09:16:37;100512.03;;;5.24;100.00
28683;BME280;15862;43.062;25.626;2023-01-26T09:19:04;100509.63;;;5.01;100.00
28683;BME280;15862;43.062;25.626;2023-01-26T09:21:29;100506.03;;;5.05;100.00
28683;BME280;15862;43.062;25.626;2023-01-26T09:23:55;100496.16;;;4.96;100.00
28683;BME280;15862;43.062;25.626;2023-01-26T09:26:21;100505.28;;;5.23;100.00
28683;BME280;15862;43.062;25.626;2023-01-26T09:28:51;100513.22;;;5.36;100.00
28683;BME280;15862;43.062;25.626;2023-01-26T09:31:17;100509.47;;;5.43;100.00
28683;BME280;15862;43.062;25.626;2023-01-26T09:33:42;100502.13;;;5.36;100.00
28683;BME280;15862;43.062;25.626;2023-01-26T09:36:09;100500.75;;;5.47;100.00
28683;BME280;15862;43.062;25.626;2023-01-26T09:38:35;100492.59;;;5.58;100.00
28683;BME280;15862;43.062;25.626;2023-01-26T09:44:26;100483.59;;;5.49;100.00
28683;BME280;15862;43.062;25.626;2023-01-26T09:46:56;100476.41;;;5.57;100.00
28683;BME280;15862;43.062;25.626;2023-01-26T09:54:25;100474.75;;;5.56;100.00
28683;BME280;15862;43.062;25.626;2023-01-26T09:56:55;100455.75;;;5.60;100.00
28683;BME280;15862;43.062;25.626;2023-01-26T10:04:52;100443.88;;;5.59;100.00
28683;BME280;15862;43.062;25.626;2023-01-26T10:07:21;100442.06;;;5.61;100.00
28683;BME280;15862;43.062;25.626;2023-01-26T10:09:48;100434.84;;;5.69;100.00
28683;BME280;15862;43.062;25.626;2023-01-26T10:14:49;100421.25;;;5.87;100.00
28683;BME280;15862;43.062;25.626;2023-01-26T10:17:19;100411.59;;;5.92;100.00
28683;BME280;15862;43.062;25.626;2023-01-26T10:19:54;100409.63;;;5.97;100.00
28683;BME280;15862;43.062;25.626;2023-01-26T10:22:31;100392.06;;;6.25;99.68
28683;BME280;15862;43.062;25.626;2023-01-26T10:25:00;100411.00;;;6.39;98.13
28683;BME280;15862;43.062;25.626;2023-01-26T10:27:29;100397.56;;;6.51;96.36
28683;BME280;15862;43.062;25.626;2023-01-26T10:29:54;100387.59;;;6.45;95.86
28683;BME280;15862;43.062;25.626;2023-01-26T10:32:19;100381.66;;;6.45;96.39
28683;BME280;15862;43.062;25.626;2023-01-26T10:34:47;100381.28;;;6.35;97.42
28683;BME280;15862;43.062;25.626;2023-01-26T10:37:21;100381.72;;;6.60;97.36
28683;BME280;15862;43.062;25.626;2023-01-26T10:39:57;100375.44;;;6.82;96.16
28683;BME280;15862;43.062;25.626;2023-01-26T10:42:29;100370.00;;;6.72;93.69
28683;BME280;15862;43.062;25.626;2023-01-26T10:44:54;100364.19;;;6.68;94.24
28683;BME280;15862;43.062;25.626;2023-01-26T10:47:20;100360.81;;;6.68;93.95
28683;BME280;15862;43.062;25.626;2023-01-26T10:49:47;100351.78;;;6.44;95.04
28683;BME280;15862;43.062;25.626;2023-01-26T10:52:22;100347.31;;;6.30;96.61
28683;BME280;15862;43.062;25.626;2023-01-26T10:55:09;100351.16;;;6.22;97.07
28683;BME280;15862;43.062;25.626;2023-01-26T10:57:40;100335.06;;;6.02;97.94
28683;BME280;15862;43.062;25.626;2023-01-26T11:00:27;100327.22;;;5.88;100.00
28683;BME280;15862;43.062;25.626;2023-01-26T11:03:18;100297.75;;;5.79;100.00
28683;BME280;15862;43.062;25.626;2023-01-26T11:05:44;100278.91;;;5.80;100.00
28683;BME280;15862;43.062;25.626;2023-01-26T11:08:33;100302.72;;;5.99;100.00
28683;BME280;15862;43.062;25.626;2023-01-26T11:10:59;100295.94;;;5.98;100.00
28683;BME280;15862;43.062;25.626;2023-01-26T11:13:24;100296.56;;;6.03;100.00
28683;BME280;15862;43.062;25.626;2023-01-26T11:16:02;100295.88;;;6.16;100.00
28683;BME280;15862;43.062;25.626;2023-01-26T11:18:48;100285.53;;;6.18;100.00
28683;BME280;15862;43.062;25.626;2023-01-26T11:21:23;100281.78;;;6.08;99.68
28683;BME280;15862;43.062;25.626;2023-01-26T11:32:18;100247.31;;;5.97;100.00
28683;BME280;15862;43.062;25.626;2023-01-26T11:35:11;100239.25;;;5.87;100.00
28683;BME280;15862;43.062;25.626;2023-01-26T11:37:43;100252.44;;;5.97;100.00
28683;BME280;15862;43.062;25.626;2023-01-26T11:40:31;100245.72;;;5.94;100.00
28683;BME280;15862;43.062;25.626;2023-01-26T11:57:22;100226.59;;;6.33;100.00
28683;BME280;15862;43.062;25.626;2023-01-26T12:02:28;100206.72;;;6.54;98.94
28683;BME280;15862;43.062;25.626;2023-01-26T12:04:57;100197.94;;;6.58;99.49
28683;BME280;15862;43.062;25.626;2023-01-26T12:09:52;100208.88;;;6.61;99.29
28683;BME280;15862;43.062;25.626;2023-01-26T12:17:31;100207.06;;;6.63;100.00
28683;BME280;15862;43.062;25.626;2023-01-26T12:26:16;100221.97;;;6.72;99.00
28683;BME280;15862;43.062;25.626;2023-01-26T12:29:02;100218.22;;;6.78;97.84
28683;BME280;15862;43.062;25.626;2023-01-26T12:31:45;100210.19;;;6.68;99.65
28683;BME280;15862;43.062;25.626;2023-01-26T12:34:13;100202.13;;;6.76;100.00
28683;BME280;15862;43.062;25.626;2023-01-26T12:39:43;100208.44;;;6.69;100.00
28683;BME280;15862;43.062;25.626;2023-01-26T12:44:56;100196.69;;;6.49;100.00
28683;BME280;15862;43.062;25.626;2023-01-26T12:50:27;100181.97;;;6.20;100.00
28683;BME280;15862;43.062;25.626;2023-01-26T12:53:06;100191.84;;;6.28;100.00
28683;BME280;15862;43.062;25.626;2023-01-26T12:55:45;100165.84;;;6.34;100.00
28683;BME280;15862;43.062;25.626;2023-01-26T12:58:20;100183.34;;;6.43;100.00
28683;BME280;15862;43.062;25.626;2023-01-26T13:01:09;100187.81;;;6.55;100.00
28683;BME280;15862;43.062;25.626;2023-01-26T13:03:39;100185.09;;;6.58;100.00
28683;BME280;15862;43.062;25.626;2023-01-26T13:13:55;100163.56;;;6.45;100.00
28683;BME280;15862;43.062;25.626;2023-01-26T13:18:51;100152.69;;;6.40;100.00
28683;BME280;15862;43.062;25.626;2023-01-26T13:26:45;100134.50;;;6.44;100.00
28683;BME280;15862;43.062;25.626;2023-01-26T13:31:55;100128.94;;;6.36;100.00
28683;BME280;15862;43.062;25.626;2023-01-26T13:34:32;100131.84;;;6.30;100.00
28683;BME280;15862;43.062;25.626;2023-01-26T13:37:07;100115.31;;;6.36;100.00
28683;BME280;15862;43.062;25.626;2023-01-26T13:39:36;100119.78;;;6.48;100.00
28683;BME280;15862;43.062;25.626;2023-01-26T13:42:15;100123.56;;;6.41;100.00
28683;BME280;15862;43.062;25.626;2023-01-26T13:44:46;100108.53;;;6.35;100.00
28683;BME280;15862;43.062;25.626;2023-01-26T13:47:23;100122.75;;;6.40;100.00
28683;BME280;15862;43.062;25.626;2023-01-26T13:49:52;100105.66;;;6.08;100.00
28683;BME280;15862;43.062;25.626;2023-01-26T13:52:20;100119.44;;;6.23;100.00
28683;BME280;15862;43.062;25.626;2023-01-26T13:54:48;100096.50;;;6.05;100.00
28683;BME280;15862;43.062;25.626;2023-01-26T13:57:22;100111.31;;;6.15;100.00
28683;BME280;15862;43.062;25.626;2023-01-26T13:59:50;100101.88;;;6.15;100.00
28683;BME280;15862;43.062;25.626;2023-01-26T14:02:23;100109.66;;;6.14;100.00
28683;BME280;15862;43.062;25.626;2023-01-26T14:04:54;100101.06;;;6.15;100.00
28683;BME280;15862;43.062;25.626;2023-01-26T14:07:39;100095.94;;;6.15;100.00
28683;BME280;15862;43.062;25.626;2023-01-26T14:10:07;100093.59;;;6.10;100.00
28683;BME280;15862;43.062;25.626;2023-01-26T14:12:41;100084.34;;;6.08;100.00
28683;BME280;15862;43.062;25.626;2023-01-26T14:15:27;100094.59;;;6.08;100.00
28683;BME280;15862;43.062;25.626;2023-01-26T14:17:57;100084.34;;;6.08;100.00
28683;BME280;15862;43.062;25.626;2023-01-26T14:20:35;100084.34;;;6.08;100.00
28683;BME280;15862;43.062;25.626;2023-01-26T14:25:37;100074.69;;;5.96;100.00
28683;BME280;15862;43.062;25.626;2023-01-26T14:28:03;100071.13;;;5.83;100.00